Time;durP1;ratioP1;P1;durP2;ratioP2;P2;SDS_P1;SDS_P2;PMS_P1;PMS_P2;Temp;Humidity;BMP_temperature;BMP_pressure;BME280_temperature;BME280_humidity;BME280_pressure;Samples;Min_cycle;Max_cycle;Signal;HPM_P1;HPM_P2
2023/10/29 16:50:27;;;;;;;7.20;1.63;;;23.20;72.20;;;;;;9971952;27;76444;-40
2023/10/29 16:59:30;;;;;;;8.00;1.77;;;;;;;;;;10258445;27;20597;-38
2023/10/29 17:13:16;;;;;;;9.00;1.65;;;24.90;69.80;;;;;;10477417;28;20571;-46
2023/10/29 17:18:20;;;;;;;17.33;2.78;;;24.70;70.30;;;;;;10387241;28;20262;-46
2023/10/29 17:23:24;;;;;;;21.77;2.40;;;24.50;71.40;;;;;;10416442;28;20295;-46
2023/10/29 17:28:29;;;;;;;15.13;2.10;;;24.30;71.60;;;;;;10466325;28;20300;-48
2023/10/29 17:33:33;;;;;;;7.70;2.47;;;24.20;71.80;;;;;;10457822;28;20332;-46
2023/10/29 17:38:36;;;;;;;13.48;2.70;;;24.10;71.90;;;;;;10457539;28;20296;-48
2023/10/29 17:43:42;;;;;;;7.22;2.17;;;24.00;72.00;;;;;;10459394;28;20235;-46
2023/10/29 17:48:46;;;;;;;10.65;2.65;;;24.00;72.00;;;;;;10456378;28;20258;-47
2023/10/29 17:53:50;;;;;;;9.30;2.88;;;23.90;72.00;;;;;;10462570;28;20231;-46
2023/10/29 17:58:56;;;;;;;4.25;2.30;;;23.90;72.00;;;;;;10458146;28;20235;-47
2023/10/29 18:04:02;;;;;;;12.85;3.38;;;23.90;72.00;;;;;;10458754;28;20281;-47
2023/10/29 18:09:06;;;;;;;9.07;2.58;;;23.80;71.90;;;;;;10459112;28;20690;-45
2023/10/29 18:14:11;;;;;;;8.00;2.42;;;23.70;71.90;;;;;;10456840;28;20227;-45
2023/10/29 18:19:15;;;;;;;7.15;2.33;;;23.70;71.80;;;;;;10457162;28;20243;-46
2023/10/29 18:24:20;;;;;;;6.95;2.42;;;23.70;71.80;;;;;;10430999;28;20247;-50
2023/10/29 18:29:25;;;;;;;11.68;2.67;;;23.70;71.80;;;;;;10429977;28;20274;-48
2023/10/29 18:34:30;;;;;;;8.68;2.35;;;23.70;71.80;;;;;;10427554;28;20232;-46
2023/10/29 18:39:34;;;;;;;4.90;2.33;;;23.70;71.80;;;;;;10436150;28;20753;-45
2023/10/29 18:44:39;;;;;;;6.70;2.63;;;23.60;71.70;;;;;;10442897;28;20255;-47
2023/10/29 18:49:42;;;;;;;6.10;1.98;;;23.60;71.60;;;;;;10419303;28;20312;-49
2023/10/29 18:54:46;;;;;;;4.88;2.15;;;23.60;71.50;;;;;;10431046;28;20224;-45
2023/10/29 18:59:51;;;;;;;7.13;2.15;;;23.60;71.50;;;;;;10396378;28;20273;-46
2023/10/29 19:04:55;;;;;;;5.95;1.70;;;23.60;71.50;;;;;;10441527;28;20272;-46
2023/10/29 19:09:59;;;;;;;5.40;2.20;;;23.60;71.40;;;;;;10443017;28;20312;-47
2023/10/29 19:15:05;;;;;;;7.53;2.22;;;23.60;71.40;;;;;;10436014;28;20683;-45
2023/10/29 19:20:10;;;;;;;6.53;2.25;;;23.60;71.30;;;;;;10437927;28;20227;-45
2023/10/29 19:25:14;;;;;;;6.65;2.28;;;23.60;71.30;;;;;;10447616;28;20778;-49
2023/10/29 19:30:19;;;;;;;4.75;1.70;;;23.60;71.30;;;;;;10443254;28;20247;-45
2023/10/29 19:35:23;;;;;;;4.57;2.20;;;23.50;71.10;;;;;;10436205;28;20293;-45
2023/10/29 19:40:26;;;;;;;5.18;2.05;;;23.50;71.10;;;;;;10443097;28;20227;-45
2023/10/29 19:45:31;;;;;;;5.85;1.95;;;23.50;71.10;;;;;;10442774;28;20251;-47
2023/10/29 19:50:38;;;;;;;5.68;1.73;;;23.50;71.00;;;;;;10441231;28;20302;-45
2023/10/29 19:55:41;;;;;;;5.18;1.55;;;23.50;71.10;;;;;;10440176;28;20895;-47
2023/10/29 20:00:47;;;;;;;4.72;1.80;;;23.50;71.00;;;;;;10435942;28;20231;-50
2023/10/29 20:05:53;;;;;;;5.97;2.28;;;23.50;71.00;;;;;;10437222;28;20293;-49
2023/10/29 20:10:57;;;;;;;4.55;1.90;;;23.50;71.00;;;;;;10446077;28;20243;-45
2023/10/29 20:16:01;;;;;;;4.60;1.95;;;23.50;70.90;;;;;;10436245;28;20312;-45
2023/10/29 20:21:10;;;;;;;6.38;2.22;;;23.50;70.80;;;;;;10438880;28;20634;-47
2023/10/29 20:26:15;;;;;;;4.55;2.20;;;23.50;70.80;;;;;;10443860;28;20224;-49
2023/10/29 20:31:20;;;;;;;4.75;2.17;;;23.50;70.80;;;;;;10439420;28;20255;-47
2023/10/29 20:36:25;;;;;;;6.55;1.95;;;23.50;70.80;;;;;;10438635;28;20216;-47
2023/10/29 20:41:28;;;;;;;5.05;2.03;;;23.50;70.70;;;;;;10436287;28;20225;-47
2023/10/29 20:46:33;;;;;;;5.72;2.33;;;23.50;70.70;;;;;;10435772;28;20282;-44
2023/10/29 20:51:37;;;;;;;5.07;2.40;;;23.50;70.70;;;;;;10422224;28;20733;-44
2023/10/29 20:56:40;;;;;;;2.97;1.70;;;23.50;70.60;;;;;;10432084;28;20247;-47
2023/10/29 21:01:45;;;;;;;4.63;1.77;;;23.50;70.60;;;;;;10429222;28;20238;-46
2023/10/29 21:06:49;;;;;;;5.05;1.77;;;23.50;70.60;;;;;;10423753;28;20308;-48
2023/10/29 21:11:52;;;;;;;2.75;1.90;;;23.50;70.50;;;;;;10431000;28;20251;-45
2023/10/29 21:16:57;;;;;;;4.45;1.98;;;23.50;70.50;;;;;;10433341;28;20243;-44
2023/10/29 21:22:01;;;;;;;2.22;1.60;;;23.50;70.50;;;;;;10440817;28;20557;-47
2023/10/29 21:27:05;;;;;;;3.90;1.60;;;23.50;70.40;;;;;;10433269;28;20246;-47
2023/10/29 21:32:09;;;;;;;3.42;1.77;;;23.50;70.40;;;;;;10432071;28;20278;-47
2023/10/29 21:37:13;;;;;;;4.30;1.63;;;23.50;70.40;;;;;;10440864;28;20238;-47
2023/10/29 21:42:17;;;;;;;6.40;1.90;;;23.50;70.40;;;;;;10433108;28;20220;-45
2023/10/29 21:47:22;;;;;;;3.53;1.65;;;23.50;70.40;;;;;;10442271;28;20709;-45
2023/10/29 21:52:25;;;;;;;5.35;1.90;;;23.50;70.40;;;;;;10423161;28;20247;-47
2023/10/29 21:57:29;;;;;;;3.33;1.50;;;23.50;70.40;;;;;;10431106;28;20256;-46
2023/10/29 22:02:34;;;;;;;3.15;1.60;;;23.50;70.40;;;;;;10442564;28;20231;-45
2023/10/29 22:07:38;;;;;;;4.38;1.60;;;23.50;70.20;;;;;;10442347;28;20243;-46
2023/10/29 22:12:41;;;;;;;3.85;1.88;;;23.50;70.20;;;;;;10439219;28;20265;-45
2023/10/29 22:17:46;;;;;;;3.70;1.50;;;23.50;70.20;;;;;;10441796;28;20247;-45
2023/10/29 22:22:50;;;;;;;4.18;1.60;;;23.50;71.00;;;;;;10440506;28;20188;-48
2023/10/29 22:27:54;;;;;;;2.70;1.45;;;23.50;70.10;;;;;;10432951;28;20255;-45
2023/10/29 22:32:58;;;;;;;4.38;1.60;;;23.40;69.90;;;;;;10437815;28;20216;-47
2023/10/29 22:38:03;;;;;;;3.35;1.73;;;23.50;70.00;;;;;;10460702;28;20220;-44
2023/10/29 22:43:07;;;;;;;6.22;1.75;;;23.50;70.00;;;;;;10482054;28;20195;-48
2023/10/29 22:48:12;;;;;;;3.08;1.35;;;23.40;69.90;;;;;;10459124;28;20219;-44
2023/10/29 22:53:16;;;;;;;5.35;1.65;;;23.40;69.80;;;;;;10449646;28;20219;-47
2023/10/29 22:58:19;;;;;;;3.88;2.00;;;23.40;69.80;;;;;;10450629;28;20272;-45
2023/10/29 23:03:24;;;;;;;4.22;1.52;;;23.40;69.80;;;;;;10454088;28;20191;-46
2023/10/29 23:08:28;;;;;;;4.85;1.77;;;23.40;69.70;;;;;;10454691;28;20219;-45
2023/10/29 23:13:32;;;;;;;4.28;1.70;;;23.40;69.70;;;;;;10449522;28;20265;-45
2023/10/29 23:18:37;;;;;;;5.13;1.95;;;23.40;69.70;;;;;;10453591;28;20823;-44
2023/10/29 23:23:41;;;;;;;3.17;1.80;;;23.40;69.50;;;;;;10451994;28;20222;-44
2023/10/29 23:28:45;;;;;;;3.95;1.70;;;23.40;69.50;;;;;;10447917;28;20231;-46
2023/10/29 23:33:50;;;;;;;5.10;1.63;;;23.40;69.50;;;;;;10471699;28;20216;-46
2023/10/29 23:38:54;;;;;;;4.85;1.67;;;23.40;69.40;;;;;;10434649;28;20254;-45
2023/10/29 23:43:57;;;;;;;4.60;1.90;;;23.40;69.40;;;;;;10445509;28;20195;-44
2023/10/29 23:49:02;;;;;;;4.28;1.80;;;23.40;69.40;;;;;;10445027;28;20239;-44
2023/10/29 23:54:06;;;;;;;4.50;1.73;;;23.40;69.30;;;;;;10448192;28;20251;-47
2023/10/29 23:59:10;;;;;;;3.40;1.55;;;23.40;69.30;;;;;;10448843;28;20820;-47
